Time;durP1;ratioP1;P1;durP2;ratioP2;P2;SDS_P1;SDS_P2;PMS_P1;PMS_P2;Temp;Humidity;BMP_temperature;BMP_pressure;BME280_temperature;BME280_humidity;BME280_pressure;Samples;Min_cycle;Max_cycle;Signal;HPM_P1;HPM_P2
2023/04/29 00:00:14;;;;;;;28.67;18.25;;;;;;;;;;5051688;28;20037;-55
2023/04/29 00:02:40;;;;;;;30.40;20.63;;;9.40;99.90;;;;;;5050844;28;20048;-56
2023/04/29 00:05:06;;;;;;;29.38;18.42;;;9.50;99.90;;;;;;5051994;28;20471;-56
2023/04/29 00:07:32;;;;;;;31.02;19.60;;;9.00;99.90;;;;;;5051476;28;20037;-55
2023/04/29 00:09:58;;;;;;;26.73;17.95;;;;;;;;;;5051924;28;20364;-54
2023/04/29 00:12:24;;;;;;;31.55;17.83;;;;;;;;;;5051186;28;20040;-55
2023/04/29 00:14:51;;;;;;;32.65;18.88;;;;;;;;;;5050684;28;20051;-56
2023/04/29 00:17:17;;;;;;;28.65;17.88;;;;;;;;;;5050928;28;20037;-56
2023/04/29 00:19:44;;;;;;;27.98;17.73;;;;;;;;;;5050711;28;20048;-55
2023/04/29 00:22:10;;;;;;;36.17;17.55;;;;;;;;;;5051070;28;20052;-56
2023/04/29 00:24:35;;;;;;;32.55;16.30;;;9.50;99.90;;;;;;5050949;28;20032;-54
2023/04/29 00:27:01;;;;;;;30.90;17.13;;;;;;;;;;5051097;28;20520;-52
2023/04/29 00:29:28;;;;;;;32.95;16.88;;;;;;;;;;5051452;28;20033;-56
2023/04/29 00:31:53;;;;;;;32.70;17.15;;;9.50;99.90;;;;;;5051253;28;20069;-55
2023/04/29 00:34:19;;;;;;;31.85;17.20;;;9.40;99.90;;;;;;5051095;28;20065;-55
2023/04/29 00:36:44;;;;;;;30.83;18.45;;;9.40;99.90;;;;;;5051106;28;20033;-54
2023/04/29 00:39:10;;;;;;;31.55;16.52;;;9.50;99.90;;;;;;5050608;28;20044;-55
2023/04/29 00:41:37;;;;;;;34.92;18.00;;;9.40;99.90;;;;;;5051121;28;20577;-56
2023/04/29 00:44:02;;;;;;;36.35;17.05;;;9.40;99.90;;;;;;5051339;28;20040;-56
2023/04/29 00:46:28;;;;;;;30.35;17.58;;;;;;;;;;5046370;28;20026;-54
2023/04/29 00:48:55;;;;;;;31.38;18.20;;;;;;;;;;5050344;28;20060;-52
2023/04/29 00:51:21;;;;;;;32.50;18.38;;;;;;;;;;5048996;28;20049;-56
2023/04/29 00:53:47;;;;;;;34.53;18.02;;;9.40;99.90;;;;;;5050987;28;20449;-55
2023/04/29 00:56:13;;;;;;;42.13;19.08;;;9.30;99.90;;;;;;5050449;28;20048;-52
2023/04/29 00:58:40;;;;;;;33.60;17.88;;;9.30;99.90;;;;;;5050804;28;20551;-55
2023/04/29 01:01:06;;;;;;;35.38;18.40;;;9.30;99.90;;;;;;5049580;28;20052;-51
2023/04/29 01:03:32;;;;;;;32.50;18.38;;;9.30;99.90;;;;;;5050109;28;20037;-55
2023/04/29 01:06:06;;;;;;;36.80;18.17;;;;;;;;;;5050736;28;20410;-52
2023/04/29 01:08:45;;;;;;;37.47;19.20;;;8.70;99.90;;;;;;5049007;28;20047;-54
2023/04/29 01:11:12;;;;;;;38.38;19.50;;;;;;;;;;5063107;28;20453;-52
2023/04/29 01:13:41;;;;;;;33.65;19.13;;;;;;;;;;5049500;28;20097;-53
2023/04/29 01:16:11;;;;;;;34.08;18.35;;;8.80;99.90;;;;;;5045242;28;20043;-55
2023/04/29 01:18:46;;;;;;;34.90;17.58;;;;;;;;;;5050609;28;20033;-55
2023/04/29 01:21:12;;;;;;;;;;;;;;;;;;5062543;28;20464;-54
2023/04/29 01:23:37;;;;;;;38.50;18.85;;;9.00;99.90;;;;;;5050630;28;19917;-51
2023/04/29 01:26:04;;;;;;;36.50;19.15;;;9.10;99.90;;;;;;5050301;28;20029;-55
2023/04/29 01:28:59;;;;;;;33.78;18.40;;;9.00;99.90;;;;;;5050103;28;20402;-53
2023/04/29 01:31:36;;;;;;;40.30;21.15;;;;;;;;;;5040369;28;20087;-52
2023/04/29 01:34:09;;;;;;;41.83;21.35;;;;;;;;;;5050253;28;20037;-56
2023/04/29 01:36:41;;;;;;;37.35;21.20;;;8.90;99.90;;;;;;5046964;28;20182;-54
2023/04/29 01:39:16;;;;;;;45.03;22.38;;;;;;;;;;5050167;28;20468;-54
2023/04/29 01:41:42;;;;;;;35.92;21.58;;;;;;;;;;5042018;28;20108;-54
2023/04/29 01:44:13;;;;;;;36.35;22.05;;;;;;;;;;5048874;28;20487;-55
2023/04/29 01:46:41;;;;;;;45.42;25.83;;;;;;;;;;5048668;28;20029;-52
2023/04/29 01:49:08;;;;;;;45.60;23.30;;;9.00;99.90;;;;;;5050233;28;20049;-52
2023/04/29 01:51:33;;;;;;;41.97;23.42;;;8.90;99.90;;;;;;5048101;28;20094;-51
2023/04/29 01:53:59;;;;;;;40.38;22.08;;;8.90;99.90;;;;;;5049851;28;20049;-52
2023/04/29 01:56:25;;;;;;;36.67;22.08;;;;;;;;;;5048827;28;20128;-51
2023/04/29 01:58:51;;;;;;;43.88;22.60;;;;;;;;;;5050165;28;20052;-51
2023/04/29 02:01:17;;;;;;;38.97;23.23;;;;;;;;;;5049325;28;20037;-51
2023/04/29 02:03:42;;;;;;;38.08;23.23;;;8.80;99.90;;;;;;5049585;28;20063;-53
2023/04/29 02:06:08;;;;;;;42.95;23.38;;;8.90;99.90;;;;;;5049631;28;20060;-56
2023/04/29 02:08:34;;;;;;;42.65;23.00;;;8.80;99.90;;;;;;5049311;28;20740;-55
2023/04/29 02:11:00;;;;;;;45.17;24.63;;;;;;;;;;5049600;28;20075;-52
2023/04/29 02:13:26;;;;;;;37.05;22.35;;;;;;;;;;5049385;28;20045;-54
2023/04/29 02:15:52;;;;;;;38.75;22.88;;;;;;;;;;5049583;28;20044;-55
2023/04/29 02:18:17;;;;;;;39.60;22.60;;;8.90;99.90;;;;;;5049187;28;20132;-52
2023/04/29 02:20:43;;;;;;;36.90;21.33;;;9.00;99.90;;;;;;5049299;28;20171;-56
2023/04/29 02:23:09;;;;;;;38.75;22.05;;;9.10;99.90;;;;;;5049568;28;20028;-51
2023/04/29 02:25:35;;;;;;;36.75;21.80;;;9.00;99.90;;;;;;5047667;28;21366;-53
2023/04/29 02:28:00;;;;;;;40.03;20.70;;;9.10;99.90;;;;;;5048283;28;20071;-55
2023/04/29 02:30:26;;;;;;;32.50;20.27;;;9.00;99.90;;;;;;5048839;28;20041;-52
2023/04/29 02:32:52;;;;;;;37.95;20.75;;;9.00;99.90;;;;;;5047983;28;20044;-52
2023/04/29 02:35:18;;;;;;;39.88;21.35;;;9.00;99.90;;;;;;5047981;28;20056;-55
2023/04/29 02:37:44;;;;;;;36.13;20.90;;;9.00;99.90;;;;;;5048894;28;20789;-55
2023/04/29 02:40:10;;;;;;;37.63;21.27;;;9.00;99.90;;;;;;5049265;28;20406;-55
2023/04/29 02:42:36;;;;;;;38.63;20.60;;;9.10;99.90;;;;;;5048760;28;20037;-54
2023/04/29 02:45:02;;;;;;;34.00;20.48;;;9.10;99.90;;;;;;5048102;28;20045;-53
2023/04/29 02:47:28;;;;;;;32.53;19.65;;;9.00;99.90;;;;;;5048565;28;20402;-53
2023/04/29 02:49:54;;;;;;;38.58;20.45;;;8.90;99.90;;;;;;5049420;28;20041;-54
2023/04/29 02:52:19;;;;;;;34.88;21.02;;;9.00;99.90;;;;;;5047625;28;20153;-52
2023/04/29 02:54:45;;;;;;;32.75;19.52;;;9.00;99.90;;;;;;5048714;28;20032;-55
2023/04/29 02:57:11;;;;;;;36.45;20.55;;;9.00;99.90;;;;;;5049224;28;20033;-53
2023/04/29 02:59:36;;;;;;;34.65;20.13;;;9.00;99.90;;;;;;5048707;28;20298;-55
2023/04/29 03:02:03;;;;;;;33.35;18.33;;;;;;;;;;5048988;28;20051;-52
2023/04/29 03:04:29;;;;;;;31.48;18.85;;;;;;;;;;5048864;28;20568;-54
2023/04/29 03:06:58;;;;;;;28.95;17.13;;;;;;;;;;5048675;28;20125;-54
2023/04/29 03:09:23;;;;;;;31.60;17.95;;;8.90;99.90;;;;;;5047377;28;20072;-54
2023/04/29 03:11:49;;;;;;;29.10;17.25;;;9.00;99.90;;;;;;5048793;28;20075;-54
2023/04/29 03:14:15;;;;;;;32.08;17.63;;;8.90;99.90;;;;;;5048090;28;20123;-55
2023/04/29 03:16:41;;;;;;;35.38;17.83;;;9.00;99.90;;;;;;5048713;28;20532;-51
2023/04/29 03:19:07;;;;;;;29.33;17.00;;;9.00;99.90;;;;;;5031115;28;20471;-52
2023/04/29 03:21:33;;;;;;;33.28;16.77;;;9.00;99.90;;;;;;5048365;28;20120;-52
2023/04/29 03:23:58;;;;;;;28.80;17.73;;;9.70;99.90;;;;;;5048642;28;20112;-54
2023/04/29 03:26:24;;;;;;;36.45;18.98;;;;;;;;;;5048396;28;20370;-54
2023/04/29 03:28:50;;;;;;;36.75;18.58;;;9.00;99.90;;;;;;5047863;28;20060;-55
2023/04/29 03:31:16;;;;;;;32.20;19.63;;;9.20;99.90;;;;;;5049264;28;20178;-55
2023/04/29 03:33:42;;;;;;;36.28;20.58;;;;;;;;;;5047202;28;20442;-55
2023/04/29 03:36:09;;;;;;;39.75;20.08;;;;;;;;;;5048492;28;20390;-52
2023/04/29 03:38:35;;;;;;;37.63;20.60;;;9.00;99.90;;;;;;5048158;28;20045;-54
2023/04/29 03:41:01;;;;;;;36.90;19.98;;;;;;;;;;5047279;28;20039;-52
2023/04/29 03:43:26;;;;;;;36.90;19.15;;;8.80;99.90;;;;;;5047293;28;20441;-53
2023/04/29 03:45:52;;;;;;;33.80;18.13;;;9.20;99.90;;;;;;5048357;28;20033;-54
2023/04/29 03:48:20;;;;;;;29.30;15.75;;;9.00;99.90;;;;;;5049100;28;20383;-52
2023/04/29 03:50:46;;;;;;;34.30;15.95;;;;;;;;;;5042637;28;20048;-54
2023/04/29 03:53:12;;;;;;;26.92;14.95;;;9.00;99.90;;;;;;5043867;28;20052;-52
2023/04/29 03:55:38;;;;;;;29.27;14.48;;;9.00;99.90;;;;;;5048064;28;20426;-52
2023/04/29 03:58:04;;;;;;;29.45;14.18;;;9.10;99.90;;;;;;5048789;28;20465;-54
2023/04/29 04:00:30;;;;;;;26.60;13.10;;;;;;;;;;5047797;28;20097;-52
2023/04/29 04:02:57;;;;;;;26.05;12.50;;;9.00;99.90;;;;;;5050900;28;20151;-55
2023/04/29 04:05:24;;;;;;;25.92;12.70;;;9.00;99.90;;;;;;5051449;28;20037;-55
2023/04/29 04:07:53;;;;;;;21.23;12.15;;;;;;;;;;5052042;28;20048;-56
2023/04/29 04:10:19;;;;;;;23.15;12.13;;;;;;;;;;5049974;28;20048;-54
2023/04/29 04:12:46;;;;;;;23.95;11.95;;;8.90;99.90;;;;;;5049566;28;20049;-53
2023/04/29 04:15:12;;;;;;;21.75;11.48;;;9.00;99.90;;;;;;5031210;28;20041;-52
2023/04/29 04:17:37;;;;;;;21.98;10.63;;;9.00;99.90;;;;;;5049261;28;20051;-56
2023/04/29 04:20:04;;;;;;;20.55;10.60;;;;;;;;;;5051123;28;20035;-54
2023/04/29 04:22:29;;;;;;;20.95;11.77;;;8.90;99.90;;;;;;5051212;28;20033;-53
2023/04/29 04:24:55;;;;;;;18.50;10.70;;;8.90;99.90;;;;;;5050491;28;20047;-54
2023/04/29 04:27:22;;;;;;;21.00;11.13;;;;;;;;;;5033443;28;20270;-56
2023/04/29 04:29:48;;;;;;;24.52;12.20;;;;;;;;;;5043355;28;20076;-54
2023/04/29 04:32:14;;;;;;;22.50;11.43;;;;;;;;;;5050172;28;20083;-52
2023/04/29 04:34:39;;;;;;;21.88;11.95;;;8.90;99.90;;;;;;5051070;28;20413;-53
2023/04/29 04:37:05;;;;;;;25.70;11.98;;;;;;;;;;5051533;28;20104;-55
2023/04/29 04:39:31;;;;;;;19.38;10.68;;;9.00;99.90;;;;;;5051061;28;20047;-53
2023/04/29 04:41:57;;;;;;;19.48;10.68;;;8.70;99.90;;;;;;5051284;28;20037;-53
2023/04/29 04:44:23;;;;;;;19.60;10.38;;;;;;;;;;5051312;28;20071;-56
2023/04/29 04:46:51;;;;;;;19.70;10.30;;;8.50;99.90;;;;;;5051056;28;20112;-55
2023/04/29 04:49:17;;;;;;;17.58;9.80;;;;;;;;;;5049972;28;20045;-54
2023/04/29 04:51:46;;;;;;;19.77;10.75;;;8.70;99.90;;;;;;5050860;28;20055;-53
2023/04/29 04:54:12;;;;;;;24.63;10.18;;;8.30;99.90;;;;;;5051230;28;20077;-52
2023/04/29 04:56:38;;;;;;;18.00;10.38;;;;;;;;;;5050816;28;20044;-53
2023/04/29 04:59:03;;;;;;;20.30;10.60;;;8.20;99.90;;;;;;5050997;28;20033;-55
2023/04/29 05:01:30;;;;;;;21.75;9.80;;;;;;;;;;5050327;28;20025;-53
2023/04/29 05:03:56;;;;;;;17.80;10.15;;;;;;;;;;5050811;28;20402;-52
2023/04/29 05:06:22;;;;;;;19.30;9.73;;;8.10;99.90;;;;;;5050949;28;20176;-54
2023/04/29 05:08:48;;;;;;;19.00;10.50;;;;;;;;;;5050554;28;20045;-55
2023/04/29 05:11:17;;;;;;;20.25;9.48;;;7.80;99.90;;;;;;5049828;28;20072;-54
2023/04/29 05:13:43;;;;;;;17.77;9.38;;;8.10;1.00;;;;;;5048916;28;20045;-54
2023/04/29 05:16:09;;;;;;;20.38;9.45;;;;;;;;;;5050550;28;20040;-54
2023/04/29 05:18:35;;;;;;;22.13;10.38;;;8.30;1.00;;;;;;5049715;28;20044;-54
2023/04/29 05:21:01;;;;;;;20.02;9.20;;;;;;;;;;5050764;28;20483;-52
2023/04/29 05:23:27;;;;;;;20.35;9.68;;;;;;;;;;5050445;28;20252;-53
2023/04/29 05:25:53;;;;;;;23.33;11.82;;;;;;;;;;5050400;28;20558;-52
2023/04/29 05:28:19;;;;;;;18.33;9.32;;;;;;;;;;5050635;28;20107;-53
2023/04/29 05:30:46;;;;;;;17.30;8.85;;;;;;;;;;5049867;28;20407;-56
2023/04/29 05:33:12;;;;;;;22.80;9.65;;;8.10;1.00;;;;;;5050052;28;20037;-52
2023/04/29 05:35:37;;;;;;;20.30;9.85;;;8.00;1.00;;;;;;5049955;28;20110;-56
2023/04/29 05:38:03;;;;;;;18.73;9.75;;;8.10;1.00;;;;;;5050625;28;20107;-53
2023/04/29 05:40:29;;;;;;;21.52;10.60;;;8.00;1.00;;;;;;5048962;28;20044;-55
2023/04/29 05:42:55;;;;;;;21.13;10.05;;;;;;;;;;5050185;28;20056;-56
2023/04/29 05:45:21;;;;;;;21.85;9.98;;;;;;;;;;5048714;28;20517;-56
2023/04/29 05:47:46;;;;;;;22.63;9.68;;;8.20;1.70;;;;;;5049505;28;20985;-56
2023/04/29 05:50:12;;;;;;;20.02;9.60;;;;;;;;;;5050294;28;20060;-52
2023/04/29 05:52:38;;;;;;;21.85;9.60;;;8.30;1.00;;;;;;5047980;28;20041;-55
2023/04/29 05:55:04;;;;;;;18.35;9.95;;;8.10;1.00;;;;;;5049988;28;20036;-56
2023/04/29 05:57:30;;;;;;;18.85;9.55;;;8.40;4.70;;;;;;5049324;28;20041;-53
2023/04/29 05:59:58;;;;;;;18.05;9.80;;;8.30;1.00;;;;;;5048541;28;20045;-53
2023/04/29 06:02:24;;;;;;;20.10;9.93;;;;;;;;;;5049595;28;20047;-54
2023/04/29 06:04:50;;;;;;;22.83;9.48;;;8.40;1.00;;;;;;5049900;28;20033;-54
2023/04/29 06:07:16;;;;;;;20.67;9.85;;;8.30;1.00;;;;;;5048186;28;20036;-54
2023/04/29 06:09:42;;;;;;;16.63;9.27;;;8.40;1.00;;;;;;5049209;28;20056;-54
2023/04/29 06:12:08;;;;;;;20.38;8.93;;;8.50;1.00;;;;;;5049828;28;20037;-53
2023/04/29 06:14:34;;;;;;;22.17;11.63;;;8.50;1.00;;;;;;5049446;28;20115;-55
2023/04/29 06:17:00;;;;;;;17.02;8.52;;;;;;;;;;5049075;28;20376;-54
2023/04/29 06:19:27;;;;;;;17.23;8.43;;;;;;;;;;5049640;28;20037;-53
2023/04/29 06:21:53;;;;;;;17.58;7.72;;;;;;;;;;5048610;28;20091;-55
2023/04/29 06:24:18;;;;;;;19.35;8.32;;;8.60;1.00;;;;;;5049968;28;20029;-54
2023/04/29 06:26:44;;;;;;;21.30;7.63;;;8.50;1.00;;;;;;5048873;28;20037;-51
2023/04/29 06:29:11;;;;;;;20.98;8.15;;;;;;;;;;5049359;28;20409;-52
2023/04/29 06:31:37;;;;;;;21.38;7.65;;;8.60;1.00;;;;;;5047890;28;20044;-54
2023/04/29 06:34:02;;;;;;;19.63;7.32;;;8.90;1.00;;;;;;5049298;28;20112;-52
2023/04/29 06:36:28;;;;;;;20.33;7.80;;;8.70;1.00;;;;;;5049107;28;20108;-53
2023/04/29 06:38:54;;;;;;;14.80;7.40;;;8.80;1.00;;;;;;5048930;28;20089;-54
2023/04/29 06:41:20;;;;;;;17.42;7.32;;;;;;;;;;5048199;28;20051;-54
2023/04/29 06:43:46;;;;;;;17.40;6.75;;;;;;;;;;5064329;28;20041;-55
2023/04/29 06:46:12;;;;;;;13.90;7.50;;;;;;;;;;5048828;28;20541;-53
2023/04/29 06:48:38;;;;;;;17.30;7.80;;;;;;;;;;5047586;28;20037;-56
2023/04/29 06:51:04;;;;;;;17.92;6.70;;;8.80;99.90;;;;;;5048964;28;20043;-52
2023/04/29 06:53:30;;;;;;;18.45;8.40;;;8.80;99.90;;;;;;5049201;28;20037;-54
2023/04/29 06:55:55;;;;;;;16.42;6.90;;;8.70;99.90;;;;;;5048558;28;20033;-52
2023/04/29 06:58:21;;;;;;;18.15;7.07;;;;;;;;;;5048905;28;20025;-55
2023/04/29 07:00:48;;;;;;;17.13;6.45;;;8.90;99.90;;;;;;5048348;28;20123;-55
2023/04/29 07:03:15;;;;;;;12.05;6.68;;;8.90;97.80;;;;;;5048996;28;20413;-52
2023/04/29 07:05:44;;;;;;;13.40;6.15;;;8.90;61.10;;;;;;5047065;28;20049;-51
2023/04/29 07:08:10;;;;;;;12.45;6.30;;;8.90;30.60;;;;;;5048151;28;20037;-56
2023/04/29 07:10:37;;;;;;;13.45;6.18;;;8.90;19.60;;;;;;5048647;28;20438;-56
2023/04/29 07:13:02;;;;;;;13.00;5.50;;;9.00;1.00;;;;;;5048915;28;20473;-53
2023/04/29 07:15:29;;;;;;;12.73;5.18;;;8.90;1.00;;;;;;5047558;28;20064;-53
2023/04/29 07:17:55;;;;;;;12.88;5.53;;;8.90;99.90;;;;;;5048597;28;20033;-54
2023/04/29 07:20:21;;;;;;;18.02;5.97;;;8.60;99.90;;;;;;5049106;28;20098;-54
2023/04/29 07:22:46;;;;;;;18.23;6.53;;;9.00;99.90;;;;;;5048499;28;20095;-54
2023/04/29 07:25:13;;;;;;;10.95;4.75;;;;;;;;;;5049114;28;20035;-56
2023/04/29 07:27:39;;;;;;;11.57;5.20;;;;;;;;;;5047950;28;20048;-56
2023/04/29 07:30:06;;;;;;;10.95;4.55;;;;;;;;;;5049042;28;20090;-53
2023/04/29 07:32:32;;;;;;;13.80;5.47;;;8.90;99.90;;;;;;5048764;28;20037;-54
2023/04/29 07:34:58;;;;;;;9.52;4.85;;;8.90;99.90;;;;;;5051516;28;20395;-56
2023/04/29 07:37:24;;;;;;;13.00;5.43;;;8.60;99.90;;;;;;5051912;28;20075;-52
2023/04/29 07:39:50;;;;;;;11.07;5.55;;;9.00;99.90;;;;;;5050886;28;20068;-53
2023/04/29 07:42:15;;;;;;;10.73;4.95;;;9.10;99.90;;;;;;5052209;28;20033;-54
2023/04/29 07:44:44;;;;;;;11.95;4.82;;;;;;;;;;5052201;28;20118;-56
2023/04/29 07:47:10;;;;;;;13.80;6.78;;;;;;;;;;5052607;28;20040;-52
2023/04/29 07:49:36;;;;;;;10.13;4.95;;;;;;;;;;5052091;28;20457;-54
2023/04/29 07:52:03;;;;;;;13.77;5.47;;;9.10;87.50;;;;;;5052329;28;20419;-55
2023/04/29 07:54:29;;;;;;;10.27;5.70;;;9.60;59.40;;;;;;5052278;28;20500;-55
2023/04/29 07:56:57;;;;;;;11.77;5.78;;;;;;;;;;5050021;28;20069;-54
2023/04/29 07:59:23;;;;;;;11.60;5.65;;;9.20;1.00;;;;;;5051967;28;20447;-54
2023/04/29 08:01:49;;;;;;;13.70;5.93;;;;;;;;;;5051715;28;20035;-52
2023/04/29 08:04:15;;;;;;;11.98;6.35;;;;;;;;;;5052088;28;20065;-52
2023/04/29 08:06:40;;;;;;;16.48;7.07;;;9.30;99.90;;;;;;5051139;28;20127;-51
2023/04/29 08:09:06;;;;;;;12.65;5.20;;;9.30;99.90;;;;;;5052053;28;20570;-53
2023/04/29 08:11:32;;;;;;;11.40;6.05;;;8.80;99.90;;;;;;5050883;28;20051;-54
2023/04/29 08:13:59;;;;;;;15.93;5.82;;;8.90;99.90;;;;;;5051588;28;20127;-56
2023/04/29 08:16:25;;;;;;;10.82;5.68;;;8.90;99.90;;;;;;5050230;28;20041;-56
2023/04/29 08:18:52;;;;;;;13.10;5.82;;;;;;;;;;5050227;28;20112;-56
2023/04/29 08:21:18;;;;;;;14.55;6.03;;;8.70;99.90;;;;;;5051845;28;20041;-55
2023/04/29 08:23:44;;;;;;;12.25;5.90;;;9.30;99.90;;;;;;5051114;28;20040;-57
2023/04/29 08:26:12;;;;;;;11.32;6.55;;;9.10;99.90;;;;;;5050293;28;20123;-57
2023/04/29 08:28:38;;;;;;;13.82;6.95;;;9.40;99.90;;;;;;5050069;28;20041;-56
2023/04/29 08:31:06;;;;;;;14.90;7.00;;;;;;;;;;5050142;28;20101;-56
2023/04/29 08:33:35;;;;;;;12.05;6.88;;;;;;;;;;5051685;28;20045;-56
2023/04/29 08:36:02;;;;;;;11.88;6.35;;;;;;;;;;5050674;28;20041;-56
2023/04/29 08:38:29;;;;;;;12.05;6.38;;;;;;;;;;5051239;28;20521;-56
2023/04/29 08:40:55;;;;;;;14.98;7.18;;;;;;;;;;5051002;28;20049;-56
2023/04/29 08:43:21;;;;;;;13.05;6.65;;;9.60;99.90;;;;;;5050164;28;20045;-56
2023/04/29 08:45:48;;;;;;;10.02;5.85;;;;;;;;;;5050367;28;20040;-56
2023/04/29 08:48:15;;;;;;;13.60;7.20;;;9.90;99.90;;;;;;5051445;28;20451;-55
2023/04/29 08:50:41;;;;;;;12.77;7.38;;;;;;;;;;5050965;28;20132;-56
2023/04/29 08:53:08;;;;;;;17.20;7.18;;;9.60;99.90;;;;;;5050708;28;20052;-56
2023/04/29 08:55:41;;;;;;;11.77;7.13;;;;;;;;;;5051122;28;20035;-57
2023/04/29 08:58:08;;;;;;;10.32;6.47;;;;;;;;;;5044263;28;20041;-55
2023/04/29 09:00:35;;;;;;;12.43;6.07;;;10.10;85.80;;;;;;5049934;28;20051;-57
2023/04/29 09:03:26;;;;;;;15.23;7.40;;;10.60;21.60;;;;;;5050828;28;20033;-56
2023/04/29 09:05:58;;;;;;;14.80;6.82;;;10.50;1.00;;;;;;5048684;28;20525;-54
2023/04/29 09:08:24;;;;;;;12.23;6.15;;;10.80;1.00;;;;;;5049577;28;20052;-57
2023/04/29 09:10:51;;;;;;;12.52;6.25;;;;;;;;;;5050433;28;20037;-56
2023/04/29 09:13:28;;;;;;;11.93;6.50;;;;;;;;;;5066207;28;20076;-55
2023/04/29 09:15:54;;;;;;;11.70;5.63;;;;;;;;;;5048888;28;20072;-57
2023/04/29 09:18:46;;;;;;;15.10;6.18;;;11.20;99.90;;;;;;5050726;28;20510;-56
2023/04/29 09:21:16;;;;;;;10.68;4.90;;;;;;;;;;5050863;28;20052;-56
2023/04/29 09:23:42;;;;;;;11.60;5.05;;;10.50;99.90;;;;;;5048802;28;20494;-56
2023/04/29 09:26:08;;;;;;;13.55;5.65;;;;;;;;;;5049163;28;20498;-56
2023/04/29 09:28:34;;;;;;;11.98;5.88;;;10.90;99.90;;;;;;5050444;28;20028;-56
2023/04/29 09:31:05;;;;;;;9.40;4.85;;;10.70;99.90;;;;;;5050213;28;20502;-56
2023/04/29 09:33:31;;;;;;;10.40;4.30;;;11.50;99.90;;;;;;5049456;28;20051;-56
2023/04/29 09:35:57;;;;;;;10.68;4.38;;;11.10;99.90;;;;;;5048381;28;20033;-56
2023/04/29 09:38:22;;;;;;;9.95;3.90;;;11.00;92.60;;;;;;5050418;28;20037;-54
2023/04/29 09:40:50;;;;;;;10.52;4.43;;;;;;;;;;5031866;28;20029;-53
2023/04/29 09:43:17;;;;;;;8.38;4.70;;;11.70;1.00;;;;;;5050136;28;20041;-55
2023/04/29 09:45:47;;;;;;;10.40;4.60;;;;;;;;;;5048350;28;20048;-54
2023/04/29 09:48:14;;;;;;;13.93;4.35;;;11.70;1.00;;;;;;5049096;28;20041;-54
2023/04/29 09:50:57;;;;;;;10.20;3.92;;;11.80;1.00;;;;;;5048984;28;20166;-54
2023/04/29 09:53:30;;;;;;;7.43;3.35;;;;;;;;;;5044642;28;20548;-52
2023/04/29 09:56:00;;;;;;;6.97;4.10;;;12.20;1.00;;;;;;5049284;28;20098;-56
2023/04/29 09:58:29;;;;;;;7.07;3.10;;;12.30;1.00;;;;;;5048133;28;20037;-54
2023/04/29 10:01:00;;;;;;;6.35;2.80;;;13.00;99.90;;;;;;5049595;28;20461;-55
2023/04/29 10:03:34;;;;;;;6.47;3.42;;;12.50;99.90;;;;;;5049901;28;20174;-56
2023/04/29 10:06:02;;;;;;;5.45;2.90;;;12.70;99.90;;;;;;5049215;28;20164;-56
2023/04/29 10:08:33;;;;;;;7.30;2.88;;;12.90;99.90;;;;;;5048508;28;20040;-56
2023/04/29 10:11:01;;;;;;;11.35;3.53;;;12.60;99.90;;;;;;5049604;28;20120;-56
2023/04/29 10:13:28;;;;;;;8.95;2.92;;;13.00;99.90;;;;;;5049814;28;20036;-54
2023/04/29 10:16:24;;;;;;;8.32;3.35;;;12.80;99.90;;;;;;5047854;28;20048;-56
2023/04/29 10:18:55;;;;;;;8.65;3.22;;;12.90;99.90;;;;;;5049777;28;20376;-57
2023/04/29 10:21:26;;;;;;;8.60;3.20;;;13.60;99.90;;;;;;5049517;28;20041;-56
2023/04/29 10:23:53;;;;;;;7.40;3.17;;;13.30;99.90;;;;;;5048139;28;20048;-56
2023/04/29 10:26:20;;;;;;;9.13;3.50;;;12.60;99.90;;;;;;5049467;28;20037;-56
2023/04/29 10:28:48;;;;;;;7.30;3.60;;;12.40;99.90;;;;;;5047777;28;20098;-55
2023/04/29 10:31:16;;;;;;;7.90;3.30;;;12.10;99.90;;;;;;5048331;28;20421;-54
2023/04/29 10:33:44;;;;;;;7.78;2.67;;;;;;;;;;5049700;28;20045;-57
2023/04/29 10:36:11;;;;;;;6.88;2.75;;;12.30;99.90;;;;;;5048084;28;20366;-53
2023/04/29 10:38:44;;;;;;;6.75;3.13;;;;;;;;;;5049880;28;20033;-56
2023/04/29 10:41:22;;;;;;;11.63;2.85;;;11.90;99.90;;;;;;5063725;28;20120;-57
2023/04/29 10:43:47;;;;;;;7.47;2.92;;;12.00;99.90;;;;;;5031300;28;20044;-56
2023/04/29 10:46:16;;;;;;;7.15;2.90;;;11.30;99.90;;;;;;5049216;28;20383;-54
2023/04/29 10:48:46;;;;;;;6.00;2.80;;;10.90;99.90;;;;;;5049488;28;20528;-56
2023/04/29 10:51:11;;;;;;;6.55;2.80;;;11.40;99.90;;;;;;5049404;28;20399;-56
2023/04/29 10:54:11;;;;;;;9.60;4.07;;;11.70;99.90;;;;;;5049547;28;20041;-54
2023/04/29 10:56:46;;;;;;;8.50;4.30;;;11.30;99.90;;;;;;5044338;28;20052;-57
2023/04/29 10:59:13;;;;;;;7.65;3.60;;;;;;;;;;5064918;28;20048;-56
2023/04/29 11:01:50;;;;;;;8.15;3.47;;;11.60;99.90;;;;;;5048859;28;20090;-55
2023/04/29 11:04:16;;;;;;;8.38;3.38;;;;;;;;;;5041708;28;20477;-57
2023/04/29 11:06:55;;;;;;;7.55;3.35;;;11.20;99.90;;;;;;5048849;28;20099;-56
2023/04/29 11:09:24;;;;;;;9.07;3.70;;;;;;;;;;5046047;28;20404;-55
2023/04/29 11:12:01;;;;;;;6.68;3.40;;;10.90;99.90;;;;;;5049444;28;20048;-52
2023/04/29 11:14:30;;;;;;;8.93;3.83;;;11.60;99.90;;;;;;5053273;28;20033;-56
2023/04/29 11:17:01;;;;;;;6.68;3.25;;;;;;;;;;5051044;28;20048;-55
2023/04/29 11:19:31;;;;;;;7.70;3.13;;;11.30;99.90;;;;;;5053291;28;20318;-56
2023/04/29 11:22:28;;;;;;;7.32;3.30;;;11.00;99.90;;;;;;5051271;28;20403;-56
2023/04/29 11:25:06;;;;;;;10.65;3.70;;;11.30;99.90;;;;;;5052628;28;20434;-54
2023/04/29 11:27:32;;;;;;;9.32;4.25;;;10.80;99.90;;;;;;5051216;28;20033;-55
2023/04/29 11:30:00;;;;;;;6.20;2.47;;;10.60;99.90;;;;;;5052399;28;20037;-55
2023/04/29 11:32:30;;;;;;;6.88;2.90;;;;;;;;;;5052754;28;20024;-56
2023/04/29 11:35:25;;;;;;;6.47;2.70;;;11.50;99.90;;;;;;5052672;28;20041;-56
2023/04/29 11:37:51;;;;;;;7.60;3.05;;;11.30;99.90;;;;;;5047219;28;20056;-54
2023/04/29 11:40:17;;;;;;;6.72;2.50;;;12.00;99.90;;;;;;5052973;28;20082;-54
2023/04/29 11:42:44;;;;;;;7.38;3.45;;;;;;;;;;5052857;28;20037;-55
2023/04/29 11:45:11;;;;;;;8.68;2.97;;;;;;;;;;5052555;28;20036;-55
2023/04/29 11:47:41;;;;;;;6.07;2.28;;;11.30;99.90;;;;;;5052243;28;20037;-55
2023/04/29 11:50:09;;;;;;;6.88;2.88;;;12.10;99.90;;;;;;5052300;28;20118;-56
2023/04/29 11:52:36;;;;;;;5.75;2.90;;;11.60;99.90;;;;;;5052489;28;20441;-56
2023/04/29 11:55:03;;;;;;;6.00;2.50;;;11.20;99.90;;;;;;5052360;28;20104;-56
2023/04/29 11:57:29;;;;;;;5.68;2.40;;;12.00;99.90;;;;;;5050972;28;20033;-55
2023/04/29 11:59:57;;;;;;;5.22;2.40;;;12.10;99.90;;;;;;5050322;28;20041;-54
2023/04/29 12:02:29;;;;;;;5.22;1.95;;;12.40;99.90;;;;;;5052418;28;20039;-54
2023/04/29 12:04:56;;;;;;;4.35;1.90;;;12.50;99.90;;;;;;5051793;28;20051;-54
2023/04/29 12:07:22;;;;;;;4.85;1.95;;;12.10;99.90;;;;;;5052268;28;20107;-55
2023/04/29 12:09:48;;;;;;;4.72;1.80;;;12.10;92.80;;;;;;5052220;28;20041;-57
2023/04/29 12:12:14;;;;;;;5.00;1.90;;;12.30;85.50;;;;;;5050733;28;20044;-54
2023/04/29 12:14:41;;;;;;;7.20;2.17;;;12.30;77.00;;;;;;5034709;28;20076;-55
2023/04/29 12:17:08;;;;;;;5.03;2.08;;;12.80;79.40;;;;;;5050100;28;20049;-57
2023/04/29 12:19:37;;;;;;;6.40;2.92;;;12.80;68.80;;;;;;5051394;28;20048;-56
2023/04/29 12:22:03;;;;;;;5.95;2.03;;;13.90;71.10;;;;;;5051571;28;20047;-56
2023/04/29 12:24:34;;;;;;;11.05;2.90;;;14.30;73.90;;;;;;5034396;28;20061;-54
2023/04/29 12:26:59;;;;;;;5.30;2.20;;;15.70;7.40;;;;;;5050351;28;20040;-55
2023/04/29 12:29:25;;;;;;;4.93;2.15;;;17.70;1.00;;;;;;5051937;28;20486;-56
2023/04/29 12:31:51;;;;;;;5.63;1.90;;;20.20;1.00;;;;;;5049880;28;20430;-52
2023/04/29 12:34:23;;;;;;;5.00;1.85;;;22.70;1.00;;;;;;5050516;28;20044;-56
2023/04/29 12:36:49;;;;;;;4.03;1.73;;;24.50;1.00;;;;;;5050511;28;20116;-55
2023/04/29 12:39:15;;;;;;;4.97;1.75;;;26.60;1.00;;;;;;5050062;28;20132;-55
2023/04/29 12:41:41;;;;;;;5.20;2.03;;;27.80;1.00;;;;;;5051701;28;20037;-57
2023/04/29 12:44:09;;;;;;;5.28;1.80;;;28.80;1.00;;;;;;5049841;28;20052;-55
2023/04/29 12:46:39;;;;;;;5.13;1.80;;;30.70;1.00;;;;;;5049583;28;20441;-55
2023/04/29 12:49:06;;;;;;;5.32;1.67;;;31.30;1.00;;;;;;5049943;28;20394;-55
2023/04/29 12:51:35;;;;;;;6.70;2.03;;;31.90;1.00;;;;;;5050961;28;20036;-54
2023/04/29 12:54:02;;;;;;;6.82;2.03;;;32.50;1.00;;;;;;5051015;28;20164;-57
2023/04/29 12:56:31;;;;;;;5.10;1.98;;;33.20;99.90;;;;;;5051223;28;20120;-58
2023/04/29 12:59:08;;;;;;;4.82;1.80;;;33.50;99.90;;;;;;5050659;28;20052;-57
2023/04/29 13:01:34;;;;;;;7.68;2.00;;;34.30;99.90;;;;;;5050766;28;20041;-56
2023/04/29 13:04:00;;;;;;;5.47;1.92;;;35.00;99.90;;;;;;5050953;28;20124;-55
2023/04/29 13:06:26;;;;;;;5.45;2.00;;;33.80;99.90;;;;;;5049448;28;20072;-57
2023/04/29 13:08:51;;;;;;;6.10;2.17;;;33.70;99.90;;;;;;5050997;28;20052;-57
2023/04/29 13:11:17;;;;;;;8.25;2.63;;;35.10;99.90;;;;;;5042667;28;20406;-57
2023/04/29 13:13:43;;;;;;;5.10;2.03;;;34.30;99.90;;;;;;5050614;28;20045;-57
2023/04/29 13:16:09;;;;;;;6.10;1.90;;;33.60;99.90;;;;;;5050516;28;20080;-55